Time;durP1;ratioP1;P1;durP2;ratioP2;P2;SDS_P1;SDS_P2;PMS_P1;PMS_P2;Temp;Humidity;BMP_temperature;BMP_pressure;BME280_temperature;BME280_humidity;BME280_pressure;Samples;Min_cycle;Max_cycle;Signal;HPM_P1;HPM_P2
2024/04/11 00:00:58;;;;;;;;;;;;;;;9.36;73.49;102666.00;4364556;27;19931;-68
2024/04/11 00:03:02;;;;;;;;;;;;;;;9.32;73.54;102665.38;4365231;27;19931;-67
2024/04/11 00:05:06;;;;;;;;;;;;;;;9.31;73.69;102665.50;4361876;27;19959;-67
2024/04/11 00:07:07;;;;;;;;;;;;;;;9.30;73.70;102669.19;4365024;27;20058;-67
2024/04/11 00:09:11;;;;;;;;;;;;;;;9.28;73.70;102669.31;4307568;27;19939;-67
2024/04/11 00:11:12;;;;;;;;;;;;;;;9.29;74.00;102668.31;4364726;27;19931;-67
2024/04/11 00:13:17;;;;;;;;;;;;;;;9.28;73.94;102676.53;4361955;27;20606;-67
2024/04/11 00:15:21;;;;;;;;;;;;;;;9.28;73.97;102665.75;4333407;27;20381;-67
2024/04/11 00:17:27;;;;;;;;;;;;;;;9.26;74.00;102682.03;4363586;27;19935;-67
2024/04/11 00:19:31;;;;;;;;;;;;;;;9.24;73.90;102675.91;4365295;27;19973;-67
2024/04/11 00:21:35;;;;;;;;;;;;;;;9.24;73.63;102675.06;4364944;27;20276;-67
2024/04/11 00:23:36;;;;;;;;;;;;;;;9.22;73.66;102674.34;4364638;27;19931;-67
2024/04/11 00:25:40;;;;;;;;;;;;;;;9.20;74.16;102674.47;4364951;27;19938;-67
2024/04/11 00:27:41;;;;;;;;;;;;;;;9.18;74.15;102663.81;4363518;27;20273;-67
2024/04/11 00:29:45;;;;;;;;;;;;;;;9.16;74.04;102667.59;4363362;27;20002;-67
2024/04/11 00:31:46;;;;;;;;;;;;;;;9.15;74.11;102669.44;4335489;27;19943;-67
2024/04/11 00:34:12;;;;;;;;;;;;;;;9.13;74.31;102676.75;4363844;27;19931;-67
2024/04/11 00:36:16;;;;;;;;;;;;;;;9.12;74.07;102668.78;4364301;27;19931;-67
2024/04/11 00:38:20;;;;;;;;;;;;;;;9.13;74.54;102668.69;4364768;27;20000;-67
2024/04/11 00:40:21;;;;;;;;;;;;;;;9.12;74.49;102672.38;4364045;27;19931;-67
2024/04/11 00:42:25;;;;;;;;;;;;;;;9.11;74.28;102677.88;4363641;27;20002;-67
2024/04/11 00:44:26;;;;;;;;;;;;;;;9.09;74.28;102675.31;4364470;27;20369;-67
2024/04/11 00:46:29;;;;;;;;;;;;;;;9.09;74.31;102674.41;4323102;27;20004;-67
2024/04/11 00:48:31;;;;;;;;;;;;;;;9.05;73.86;102678.34;4364116;27;19938;-67
2024/04/11 00:50:35;;;;;;;;;;;;;;;9.02;73.93;102680.28;4365229;27;19942;-67
2024/04/11 00:52:39;;;;;;;;;;;;;;;8.95;73.93;102676.38;4362750;27;19931;-67
2024/04/11 00:54:42;;;;;;;;;;;;;;;8.90;73.94;102675.84;4362227;27;19943;-67
2024/04/11 00:56:44;;;;;;;;;;;;;;;8.89;74.36;102684.09;4363600;27;19937;-67
2024/04/11 00:58:48;;;;;;;;;;;;;;;8.85;74.87;102678.03;4363853;27;20361;-67
2024/04/11 01:00:49;;;;;;;;;;;;;;;8.80;74.87;102683.78;4335159;27;19947;-67
2024/04/11 01:02:52;;;;;;;;;;;;;;;8.78;74.78;102684.91;4363820;27;19935;-67
2024/04/11 01:04:54;;;;;;;;;;;;;;;8.75;75.18;102679.75;4364332;27;19939;-67
2024/04/11 01:07:10;;;;;;;;;;;;;;;8.69;75.20;102678.38;4363647;27;19963;-67
2024/04/11 01:09:19;;;;;;;;;;;;;;;8.62;75.51;102675.28;4364802;27;19934;-67
2024/04/11 01:11:23;;;;;;;;;;;;;;;8.55;75.51;102679.41;4322374;27;20263;-68
2024/04/11 01:13:24;;;;;;;;;;;;;;;8.52;75.70;102679.66;4364330;27;20366;-67
2024/04/11 01:15:25;;;;;;;;;;;;;;;8.47;75.83;102676.44;4322004;27;20313;-68
2024/04/11 01:17:29;;;;;;;;;;;;;;;8.44;76.51;102684.75;4364780;27;19937;-67
2024/04/11 01:19:30;;;;;;;;;;;;;;;8.41;76.41;102680.41;4364683;27;20369;-68
2024/04/11 01:21:36;;;;;;;;;;;;;;;8.39;76.78;102679.69;4361817;27;19931;-68
2024/04/11 01:23:39;;;;;;;;;;;;;;;8.37;77.02;102683.47;4335104;27;19936;-67
2024/04/11 01:25:44;;;;;;;;;;;;;;;8.35;77.00;102677.34;4361696;27;19931;-67
2024/04/11 01:27:45;;;;;;;;;;;;;;;8.29;77.04;102674.13;4363548;27;19947;-67
2024/04/11 01:29:49;;;;;;;;;;;;;;;8.29;77.12;102675.94;4363255;27;20433;-68
2024/04/11 01:31:53;;;;;;;;;;;;;;;8.27;77.01;102670.69;4364028;27;19942;-68
2024/04/11 01:33:56;;;;;;;;;;;;;;;8.25;77.38;102675.31;4362975;27;19966;-68
2024/04/11 01:36:00;;;;;;;;;;;;;;;8.26;77.03;102668.97;4363912;27;19931;-68
2024/04/11 01:38:05;;;;;;;;;;;;;;;8.26;76.70;102678.88;4363351;27;19978;-67
2024/04/11 01:40:09;;;;;;;;;;;;;;;8.24;76.81;102676.28;4364780;27;19947;-68
2024/04/11 01:42:12;;;;;;;;;;;;;;;8.21;76.69;102686.44;4362961;27;20280;-68
2024/04/11 01:44:14;;;;;;;;;;;;;;;8.19;76.80;102673.09;4362768;27;19938;-68
2024/04/11 01:46:18;;;;;;;;;;;;;;;8.16;76.76;102667.94;4363127;27;19938;-69
2024/04/11 01:48:21;;;;;;;;;;;;;;;8.11;76.61;102668.28;4362804;27;20369;-69
2024/04/11 01:50:24;;;;;;;;;;;;;;;8.08;77.02;102671.19;4362063;27;19982;-69
2024/04/11 01:52:25;;;;;;;;;;;;;;;8.07;77.07;102672.19;4362197;27;20378;-68
2024/04/11 01:54:29;;;;;;;;;;;;;;;8.07;76.90;102674.00;4357266;27;19938;-69
2024/04/11 01:56:34;;;;;;;;;;;;;;;8.04;77.69;102672.41;4360573;27;19997;-69
2024/04/11 01:58:39;;;;;;;;;;;;;;;8.02;77.63;102673.47;4323057;27;20299;-69
2024/04/11 02:00:40;;;;;;;;;;;;;;;7.99;77.52;102676.41;4321064;27;19948;-69
2024/04/11 02:02:49;;;;;;;;;;;;;;;7.96;78.05;102663.16;4362514;27;19931;-69
2024/04/11 02:04:50;;;;;;;;;;;;;;;7.93;77.88;102675.88;4362684;27;19931;-69
2024/04/11 02:06:53;;;;;;;;;;;;;;;7.91;77.72;102672.44;4362364;27;19938;-68
2024/04/11 02:08:56;;;;;;;;;;;;;;;7.89;78.61;102676.22;4360762;27;19931;-68
2024/04/11 02:11:00;;;;;;;;;;;;;;;7.90;78.47;102677.94;4363378;27;19931;-68
2024/04/11 02:13:04;;;;;;;;;;;;;;;7.89;79.10;102682.44;4363088;27;20350;-68
2024/04/11 02:15:10;;;;;;;;;;;;;;;7.91;78.80;102683.19;4333704;27;20508;-69
2024/04/11 02:17:11;;;;;;;;;;;;;;;7.91;78.83;102680.50;4362937;27;19931;-69
2024/04/11 02:19:16;;;;;;;;;;;;;;;7.90;78.82;102673.41;4363542;27;20022;-69
2024/04/11 02:21:19;;;;;;;;;;;;;;;7.89;78.23;102676.22;4334595;27;20344;-68
2024/04/11 02:23:22;;;;;;;;;;;;;;;7.88;77.98;102679.88;4363153;27;20001;-69
2024/04/11 02:25:24;;;;;;;;;;;;;;;7.87;78.20;102675.47;4363912;27;19931;-69
2024/04/11 02:27:29;;;;;;;;;;;;;;;7.87;78.66;102678.19;4362063;27;19931;-69
2024/04/11 02:29:35;;;;;;;;;;;;;;;7.87;78.94;102676.34;4363464;27;19935;-69
2024/04/11 02:31:39;;;;;;;;;;;;;;;7.89;78.89;102678.91;4360593;27;20005;-68
2024/04/11 02:33:41;;;;;;;;;;;;;;;7.87;78.38;102670.09;4363527;27;19931;-68
2024/04/11 02:35:45;;;;;;;;;;;;;;;7.84;77.87;102675.72;4321891;27;19931;-68
2024/04/11 02:37:46;;;;;;;;;;;;;;;7.79;77.68;102683.22;4363760;27;19931;-69
2024/04/11 02:39:52;;;;;;;;;;;;;;;7.78;77.47;102668.94;4363251;27;19942;-69
2024/04/11 02:41:53;;;;;;;;;;;;;;;7.77;78.66;102669.88;4363493;27;19938;-68
2024/04/11 02:43:58;;;;;;;;;;;;;;;7.76;78.37;102674.41;4363541;27;19935;-68
2024/04/11 02:46:02;;;;;;;;;;;;;;;7.77;78.61;102675.28;4363312;27;20357;-69
2024/04/11 02:48:06;;;;;;;;;;;;;;;7.79;79.06;102680.53;4362736;27;19950;-68
2024/04/11 02:50:09;;;;;;;;;;;;;;;7.79;78.86;102680.53;4320545;27;19967;-68
2024/04/11 02:52:13;;;;;;;;;;;;;;;7.80;78.91;102687.66;4363390;27;20380;-68
2024/04/11 02:54:14;;;;;;;;;;;;;;;7.76;78.35;102687.03;4363324;27;20281;-68
2024/04/11 02:56:17;;;;;;;;;;;;;;;7.75;78.50;102685.28;4361351;27;19935;-68
2024/04/11 02:58:19;;;;;;;;;;;;;;;7.71;78.37;102681.97;4363988;27;19942;-68
2024/04/11 03:00:23;;;;;;;;;;;;;;;7.71;78.34;102679.28;4365394;27;20384;-68
2024/04/11 03:02:29;;;;;;;;;;;;;;;7.69;78.05;102678.50;4366818;27;20024;-68
2024/04/11 03:04:32;;;;;;;;;;;;;;;7.69;78.59;102674.97;4336294;27;19964;-68
2024/04/11 03:06:33;;;;;;;;;;;;;;;7.67;78.10;102671.53;4365933;27;20610;-68
2024/04/11 03:08:34;;;;;;;;;;;;;;;7.64;78.21;102672.63;4365143;27;19931;-68
2024/04/11 03:10:40;;;;;;;;;;;;;;;7.63;78.27;102678.09;4365323;27;19931;-68
2024/04/11 03:12:42;;;;;;;;;;;;;;;7.60;78.41;102683.69;4335865;27;19963;-69
2024/04/11 03:14:48;;;;;;;;;;;;;;;7.58;78.08;102686.50;4365373;27;19931;-69
2024/04/11 03:16:52;;;;;;;;;;;;;;;7.58;78.31;102686.50;4363623;27;19938;-68
2024/04/11 03:18:58;;;;;;;;;;;;;;;7.57;78.61;102677.56;4364229;27;20369;-69
2024/04/11 03:20:59;;;;;;;;;;;;;;;7.58;78.57;102686.50;4366071;27;19931;-68
2024/04/11 03:23:03;;;;;;;;;;;;;;;7.56;77.93;102680.38;4365742;27;19942;-69
2024/04/11 03:25:04;;;;;;;;;;;;;;;7.52;78.13;102677.06;4365761;27;19931;-68
2024/04/11 03:27:08;;;;;;;;;;;;;;;7.51;77.97;102677.16;4362150;27;19982;-68
2024/04/11 03:29:09;;;;;;;;;;;;;;;7.52;78.28;102678.88;4365136;27;19931;-68
2024/04/11 03:31:18;;;;;;;;;;;;;;;7.51;78.77;102672.63;4322734;27;20003;-68
2024/04/11 03:33:19;;;;;;;;;;;;;;;7.51;78.51;102675.31;4365748;27;19938;-68
2024/04/11 03:35:25;;;;;;;;;;;;;;;7.50;78.34;102668.22;4322829;27;19936;-68
2024/04/11 03:37:27;;;;;;;;;;;;;;;7.49;78.09;102676.41;4366113;27;19931;-69
2024/04/11 03:39:31;;;;;;;;;;;;;;;7.48;77.63;102677.38;4365634;27;19935;-69
2024/04/11 03:41:32;;;;;;;;;;;;;;;7.45;77.61;102678.44;4366112;27;20373;-68
2024/04/11 03:43:36;;;;;;;;;;;;;;;7.44;78.05;102671.34;4365165;27;20001;-68
2024/04/11 03:45:42;;;;;;;;;;;;;;;7.42;77.99;102667.91;4336516;27;20408;-68
2024/04/11 03:47:45;;;;;;;;;;;;;;;7.39;77.72;102668.97;4364251;27;19938;-68
2024/04/11 03:49:50;;;;;;;;;;;;;;;7.37;77.96;102668.25;4365019;27;19938;-68
2024/04/11 03:51:55;;;;;;;;;;;;;;;7.36;77.87;102666.50;4363979;27;19939;-69
2024/04/11 03:53:56;;;;;;;;;;;;;;;7.34;77.96;102654.16;4365019;27;20303;-68
2024/04/11 03:56:00;;;;;;;;;;;;;;;7.31;78.00;102659.75;4323791;27;19936;-68
2024/04/11 03:58:01;;;;;;;;;;;;;;;7.30;78.92;102658.03;4365157;27;19931;-68
2024/04/11 04:00:07;;;;;;;;;;;;;;;7.32;79.12;102666.84;4365329;27;19938;-68
2024/04/11 04:02:12;;;;;;;;;;;;;;;7.35;78.74;102666.63;4364356;27;19931;-69
2024/04/11 04:04:19;;;;;;;;;;;;;;;7.37;79.08;102670.06;4365322;27;19962;-69
2024/04/11 04:06:21;;;;;;;;;;;;;;;7.39;79.33;102674.34;4366044;27;20361;-68
2024/04/11 04:08:27;;;;;;;;;;;;;;;7.38;79.73;102690.59;4361952;27;20697;-68
2024/04/11 04:10:29;;;;;;;;;;;;;;;7.39;79.84;102690.47;4362043;27;20616;-69
2024/04/11 04:12:32;;;;;;;;;;;;;;;7.42;79.26;102688.56;4357919;27;19947;-69
2024/04/11 04:14:33;;;;;;;;;;;;;;;7.42;78.94;102689.41;4361801;27;19931;-69
2024/04/11 04:16:41;;;;;;;;;;;;;;;7.39;78.96;102681.56;4364939;27;19938;-69
2024/04/11 04:18:45;;;;;;;;;;;;;;;7.45;79.13;102688.34;4365018;27;20603;-69
2024/04/11 04:20:56;;;;;;;;;;;;;;;7.44;78.87;102692.00;4364994;27;19931;-69
2024/04/11 04:22:57;;;;;;;;;;;;;;;7.44;79.12;102692.00;4323467;27;20377;-69
2024/04/11 04:25:03;;;;;;;;;;;;;;;7.40;79.20;102697.59;4321891;27;19940;-69
2024/04/11 04:27:06;;;;;;;;;;;;;;;7.40;79.30;102686.00;4363420;27;19938;-69
2024/04/11 04:29:10;;;;;;;;;;;;;;;7.40;78.99;102694.06;4322152;27;20081;-69
2024/04/11 04:31:12;;;;;;;;;;;;;;;7.37;78.82;102700.50;4365137;27;20020;-69
2024/04/11 04:33:13;;;;;;;;;;;;;;;7.37;78.43;102691.59;4360777;27;19938;-70
2024/04/11 04:35:16;;;;;;;;;;;;;;;7.34;78.34;102699.88;4363753;27;19931;-69
2024/04/11 04:37:17;;;;;;;;;;;;;;;7.33;78.58;102690.91;4364974;27;20361;-69
2024/04/11 04:39:30;;;;;;;;;;;;;;;7.32;78.70;102693.72;4364191;27;19946;-69
2024/04/11 04:41:34;;;;;;;;;;;;;;;7.31;78.58;102692.88;4335204;27;19939;-69
2024/04/11 04:43:38;;;;;;;;;;;;;;;7.30;78.55;102698.34;4364274;27;19931;-69
2024/04/11 04:45:41;;;;;;;;;;;;;;;7.28;78.71;102695.75;4363473;27;19939;-69
2024/04/11 04:47:45;;;;;;;;;;;;;;;7.30;78.88;102693.81;4362215;27;19959;-69
2024/04/11 04:49:46;;;;;;;;;;;;;;;7.32;78.72;102691.91;4364500;27;19935;-69
2024/04/11 04:51:50;;;;;;;;;;;;;;;7.36;79.62;102690.69;4364835;27;20388;-69
2024/04/11 04:53:52;;;;;;;;;;;;;;;7.36;79.12;102696.06;4364089;27;19931;-69
2024/04/11 04:55:53;;;;;;;;;;;;;;;7.40;79.57;102694.91;4363729;27;20293;-69
2024/04/11 04:57:59;;;;;;;;;;;;;;;7.42;79.04;102694.78;4361218;27;19935;-69
2024/04/11 05:00:00;;;;;;;;;;;;;;;7.43;79.23;102698.34;4363937;27;19935;-69
2024/04/11 05:02:04;;;;;;;;;;;;;;;7.43;79.55;102696.53;4364261;27;20306;-69
2024/04/11 05:04:05;;;;;;;;;;;;;;;7.44;79.57;102703.59;4364443;27;20646;-69
2024/04/11 05:06:12;;;;;;;;;;;;;;;7.45;80.10;102693.72;4364135;27;19933;-69
2024/04/11 05:08:14;;;;;;;;;;;;;;;7.44;80.08;102700.91;4362442;27;19939;-69
2024/04/11 05:10:20;;;;;;;;;;;;;;;7.44;79.82;102697.38;4363211;27;20284;-69
2024/04/11 05:12:22;;;;;;;;;;;;;;;7.46;80.23;102692.75;4334603;27;19951;-69
2024/04/11 05:14:28;;;;;;;;;;;;;;;7.46;80.47;102704.38;4364488;27;19938;-69
2024/04/11 05:16:30;;;;;;;;;;;;;;;7.48;80.90;102697.06;4364249;27;19931;-69
2024/04/11 05:18:37;;;;;;;;;;;;;;;7.50;81.02;102695.09;4361466;27;19931;-69
2024/04/11 05:20:38;;;;;;;;;;;;;;;7.52;81.07;102695.88;4363424;27;19947;-69
2024/04/11 05:22:39;;;;;;;;;;;;;;;7.58;81.39;102708.00;4363466;27;19931;-69
2024/04/11 05:24:44;;;;;;;;;;;;;;;7.62;81.70;102697.88;4362868;27;20428;-69
2024/04/11 05:26:48;;;;;;;;;;;;;;;7.65;81.33;102700.34;4362793;27;19939;-69
2024/04/11 05:28:52;;;;;;;;;;;;;;;7.67;81.67;102701.13;4363377;27;20283;-69
2024/04/11 05:30:57;;;;;;;;;;;;;;;7.68;81.91;102690.25;4363616;27;20005;-69
2024/04/11 05:33:00;;;;;;;;;;;;;;;7.72;81.79;102696.28;4360127;27;19931;-69
2024/04/11 05:35:01;;;;;;;;;;;;;;;7.73;81.65;102701.53;4362810;27;20357;-69
2024/04/11 05:37:09;;;;;;;;;;;;;;;7.76;82.16;102700.47;4362075;27;19931;-69
2024/04/11 05:39:14;;;;;;;;;;;;;;;7.79;82.22;102694.88;4363561;27;20002;-69
2024/04/11 05:41:19;;;;;;;;;;;;;;;7.82;82.08;102688.38;4362850;27;20304;-69
2024/04/11 05:43:21;;;;;;;;;;;;;;;7.84;82.29;102679.25;4362505;27;20687;-69
2024/04/11 05:45:33;;;;;;;;;;;;;;;7.92;82.69;102684.91;4304868;27;20433;-69
2024/04/11 05:47:37;;;;;;;;;;;;;;;7.97;82.68;102686.44;4363937;27;19931;-68
2024/04/11 05:49:40;;;;;;;;;;;;;;;8.02;82.17;102700.41;4363227;27;19931;-69
2024/04/11 05:51:42;;;;;;;;;;;;;;;8.06;82.17;102697.38;4363989;27;20385;-68
2024/04/11 05:53:46;;;;;;;;;;;;;;;8.10;82.41;102696.19;4362095;27;19948;-68
2024/04/11 05:55:47;;;;;;;;;;;;;;;8.15;82.39;102692.28;4362630;27;20018;-68
2024/04/11 05:57:53;;;;;;;;;;;;;;;8.18;81.77;102686.66;4362982;27;19943;-68
2024/04/11 05:59:55;;;;;;;;;;;;;;;8.23;81.71;102695.28;4362168;27;19938;-69
2024/04/11 06:02:00;;;;;;;;;;;;;;;8.27;81.92;102692.22;4363059;27;20305;-69
2024/04/11 06:04:05;;;;;;;;;;;;;;;8.33;81.66;102696.28;4363187;27;19950;-68
2024/04/11 06:06:11;;;;;;;;;;;;;;;8.37;81.74;102695.09;4363854;27;20392;-68
2024/04/11 06:08:12;;;;;;;;;;;;;;;8.41;82.14;102690.34;4363036;27;19982;-68
2024/04/11 06:10:20;;;;;;;;;;;;;;;8.45;81.64;102698.13;4362672;27;19935;-68
2024/04/11 06:12:21;;;;;;;;;;;;;;;8.51;81.49;102698.63;4362898;27;20660;-68
2024/04/11 06:21:22;;;;;;;;;;;;;;;8.71;81.00;102689.88;4427935;21;19930;-67
2024/04/11 06:23:26;;;;;;;;;;;;;;;8.77;80.99;102689.41;4374016;27;19931;-67
2024/04/11 06:25:30;;;;;;;;;;;;;;;8.81;80.92;102692.75;4368266;27;20375;-67
2024/04/11 06:27:31;;;;;;;;;;;;;;;8.85;80.63;102688.81;4371712;27;20356;-67
2024/04/11 06:29:37;;;;;;;;;;;;;;;8.92;80.33;102689.19;4374272;27;19947;-67
2024/04/11 06:31:43;;;;;;;;;;;;;;;8.95;80.35;102684.47;4377925;27;19931;-67
2024/04/11 06:33:46;;;;;;;;;;;;;;;9.00;80.50;102681.41;4376211;27;19931;-67
2024/04/11 06:35:54;;;;;;;;;;;;;;;9.05;80.54;102681.06;4377094;27;19938;-67
2024/04/11 06:37:59;;;;;;;;;;;;;;;9.10;80.24;102684.25;4320375;27;20390;-67
2024/04/11 06:40:11;;;;;;;;;;;;;;;9.14;80.27;102683.88;4375405;27;19942;-67
2024/04/11 06:42:13;;;;;;;;;;;;;;;9.19;80.24;102689.75;4377513;27;20000;-67
2024/04/11 06:44:20;;;;;;;;;;;;;;;9.25;79.61;102687.56;4373945;27;20417;-67
2024/04/11 15:18:13;;;;;;;;;;;;;;;14.56;48.71;102600.88;4323303;21;20346;-69
2024/04/11 15:20:21;;;;;;;;;;;;;;;14.57;48.77;102605.28;4385377;26;19946;-70
2024/04/11 15:22:35;;;;;;;;;;;;;;;14.58;48.86;102601.56;4325034;27;20452;-68
2024/04/11 15:24:42;;;;;;;;;;;;;;;14.59;48.73;102605.13;4354506;27;19938;-70
2024/04/11 15:26:54;;;;;;;;;;;;;;;14.60;48.89;102607.72;4388959;26;19930;-68
2024/04/11 15:29:01;;;;;;;;;;;;;;;14.62;48.65;102601.28;4355135;27;19967;-70
2024/04/11 15:31:29;;;;;;;;;;;;;;;14.62;48.82;102596.69;4377800;26;19975;-69
2024/04/11 15:33:33;;;;;;;;;;;;;;;14.64;49.07;102607.41;4388173;26;21024;-68
2024/04/11 15:35:42;;;;;;;;;;;;;;;14.64;49.18;102600.13;4358837;27;20014;-68
2024/04/11 15:38:16;;;;;;;;;;;;;;;14.64;49.33;102602.84;4360326;27;19939;-69
2024/04/11 15:40:25;;;;;;;;;;;;;;;14.66;49.37;102595.38;4389130;26;19930;-69
2024/04/11 15:42:32;;;;;;;;;;;;;;;14.67;49.31;102598.94;4347084;27;20006;-68
2024/04/11 15:44:37;;;;;;;;;;;;;;;14.67;49.21;102599.81;4372747;27;21002;-69
2024/04/11 15:46:43;;;;;;;;;;;;;;;14.68;49.37;102590.63;4348719;27;19944;-70
2024/04/11 15:49:07;;;;;;;;;;;;;;;14.70;49.67;102595.91;4387139;26;19939;-69
2024/04/11 15:51:08;;;;;;;;;;;;;;;14.69;49.72;102592.34;4385080;26;19931;-68
2024/04/11 15:53:16;;;;;;;;;;;;;;;14.71;49.70;102594.91;4386793;26;20430;-70
2024/04/11 15:55:17;;;;;;;;;;;;;;;14.72;49.55;102600.19;4359225;27;19933;-70
2024/04/11 15:57:30;;;;;;;;;;;;;;;14.72;49.59;102600.19;4389424;26;19942;-69
2024/04/11 15:59:33;;;;;;;;;;;;;;;14.73;50.02;102595.59;4358592;27;19990;-68
2024/04/11 16:01:39;;;;;;;;;;;;;;;14.73;49.93;102601.03;4388986;26;19959;-68
2024/04/11 16:03:51;;;;;;;;;;;;;;;14.75;50.02;102599.88;4321823;27;19939;-67
2024/04/11 16:06:01;;;;;;;;;;;;;;;14.75;50.19;102599.03;4388340;27;20482;-70
2024/04/11 16:08:11;;;;;;;;;;;;;;;14.75;50.25;102604.47;4351900;27;19940;-69
2024/04/11 16:12:34;;;;;;;;;;;;;;;14.77;50.39;102605.16;4386772;26;20328;-69
2024/04/11 16:14:43;;;;;;;;;;;;;;;14.77;50.45;102606.00;4392415;27;20273;-69
2024/04/11 16:16:55;;;;;;;;;;;;;;;14.77;50.65;102597.81;4361265;27;19946;-68
2024/04/11 16:19:02;;;;;;;;;;;;;;;14.77;50.72;102608.72;4390103;26;19938;-69
2024/04/11 16:21:13;;;;;;;;;;;;;;;14.79;50.79;102605.84;4361126;27;20329;-69
2024/04/11 16:23:18;;;;;;;;;;;;;;;14.80;50.80;102609.44;4390302;27;19962;-68
2024/04/11 16:25:25;;;;;;;;;;;;;;;14.80;51.08;102610.28;4390417;26;20447;-68
2024/04/11 16:27:34;;;;;;;;;;;;;;;14.80;51.15;102612.16;4389144;26;19930;-69
2024/04/11 16:29:44;;;;;;;;;;;;;;;14.77;51.16;102600.56;4351010;27;20362;-69
2024/04/11 16:31:48;;;;;;;;;;;;;;;14.82;51.27;102610.94;4363471;27;19931;-70
2024/04/11 16:33:57;;;;;;;;;;;;;;;14.82;51.07;102616.41;4387366;27;20005;-68
2024/04/11 16:35:59;;;;;;;;;;;;;;;14.84;51.31;102618.94;4391089;27;20038;-68
2024/04/11 16:38:07;;;;;;;;;;;;;;;14.84;51.52;102610.78;4390334;26;20388;-69
2024/04/11 16:40:23;;;;;;;;;;;;;;;14.86;51.29;102603.31;4392212;26;19974;-68
2024/04/11 16:42:26;;;;;;;;;;;;;;;14.86;51.32;102606.03;4388274;26;19955;-68
2024/04/11 16:44:36;;;;;;;;;;;;;;;14.87;51.33;102605.88;4359142;27;19931;-68
2024/04/11 16:46:40;;;;;;;;;;;;;;;14.87;51.62;102592.28;4390333;26;19931;-68
2024/04/11 16:48:53;;;;;;;;;;;;;;;14.88;51.52;102595.88;4390801;26;19930;-68
2024/04/11 16:50:55;;;;;;;;;;;;;;;14.89;51.70;102589.41;4391168;26;19937;-66
2024/04/11 16:53:01;;;;;;;;;;;;;;;14.90;52.01;102593.84;4376206;27;20310;-67
2024/04/11 16:55:23;;;;;;;;;;;;;;;14.90;51.97;102591.13;4363197;27;20292;-66
2024/04/11 16:57:27;;;;;;;;;;;;;;;14.91;52.56;102592.81;4390241;26;19994;-66
2024/04/11 16:59:33;;;;;;;;;;;;;;;14.92;52.47;102587.22;4392725;26;19930;-66
2024/04/11 17:01:40;;;;;;;;;;;;;;;14.93;52.83;102582.63;4393950;26;20000;-66
2024/04/11 17:03:52;;;;;;;;;;;;;;;14.95;52.87;102592.34;4377979;27;20391;-65
2024/04/11 17:06:10;;;;;;;;;;;;;;;14.95;52.84;102592.34;4390294;26;19930;-66
2024/04/11 17:08:13;;;;;;;;;;;;;;;14.96;52.73;102583.16;4391526;26;19930;-66
2024/04/11 17:10:33;;;;;;;;;;;;;;;14.98;52.74;102591.16;4350188;27;20363;-66
2024/04/11 17:12:34;;;;;;;;;;;;;;;14.99;52.88;102590.16;4390826;26;19938;-70
2024/04/11 17:14:40;;;;;;;;;;;;;;;15.00;52.76;102594.59;4389516;27;19931;-70
2024/04/11 17:19:28;;;;;;;;;;;;;;;15.01;52.93;102590.00;4362643;27;19939;-70
2024/04/11 17:21:28;;;;;;;;;;;;;;;15.02;52.83;102594.44;4383996;26;20369;-68
2024/04/11 17:23:45;;;;;;;;;;;;;;;15.02;52.99;102587.09;4387397;26;19930;-68
2024/04/11 17:25:51;;;;;;;;;;;;;;;15.05;53.15;102589.50;4388909;26;19962;-66
2024/04/11 17:27:57;;;;;;;;;;;;;;;15.05;53.25;102591.38;4361649;27;19938;-69
2024/04/11 17:29:59;;;;;;;;;;;;;;;15.03;53.14;102579.78;4355894;27;19931;-69
2024/04/11 17:32:12;;;;;;;;;;;;;;;15.06;53.16;102587.63;4363600;27;20042;-69
2024/04/11 17:34:15;;;;;;;;;;;;;;;15.02;52.91;102576.22;4360542;27;19970;-69
2024/04/11 17:36:33;;;;;;;;;;;;;;;15.07;53.28;102586.63;4390040;26;20000;-70
2024/04/11 17:38:47;;;;;;;;;;;;;;;15.08;53.04;102586.47;4391699;26;19938;-68
2024/04/11 17:40:51;;;;;;;;;;;;;;;15.07;53.47;102587.47;4390682;27;19939;-68
2024/04/11 17:43:27;;;;;;;;;;;;;;;15.08;53.25;102583.75;4389342;26;20045;-69
2024/04/11 17:45:30;;;;;;;;;;;;;;;15.08;53.17;102581.03;4390728;26;20051;-68
2024/04/11 17:47:31;;;;;;;;;;;;;;;15.08;53.36;102582.91;4391261;26;19942;-67
2024/04/11 17:49:55;;;;;;;;;;;;;;;15.08;53.26;102581.03;4357141;27;19963;-67
2024/04/11 17:51:56;;;;;;;;;;;;;;;15.09;53.31;102592.75;4385294;26;19977;-67
2024/04/11 17:54:00;;;;;;;;;;;;;;;15.09;53.34;102581.88;4360031;27;20408;-68
2024/04/11 17:56:09;;;;;;;;;;;;;;;15.08;53.49;102586.47;4390100;26;20374;-68
2024/04/11 17:58:21;;;;;;;;;;;;;;;15.08;53.32;102588.34;4351311;27;19931;-68
2024/04/11 18:00:31;;;;;;;;;;;;;;;15.09;53.45;102595.47;4391124;27;19938;-69
2024/04/11 18:02:46;;;;;;;;;;;;;;;15.08;53.60;102599.22;4390543;26;19934;-67
2024/04/11 18:04:51;;;;;;;;;;;;;;;15.08;53.44;102610.13;4392262;27;20075;-67
2024/04/11 18:06:55;;;;;;;;;;;;;;;15.06;53.60;102604.84;4391056;26;19954;-68
2024/04/11 18:08:57;;;;;;;;;;;;;;;15.06;53.57;102604.84;4390935;26;19931;-67
2024/04/11 18:11:01;;;;;;;;;;;;;;;15.05;53.74;102597.66;4390550;26;19931;-69
2024/04/11 18:13:17;;;;;;;;;;;;;;;15.04;53.89;102606.00;4378183;26;19930;-70
2024/04/11 18:15:32;;;;;;;;;;;;;;;15.04;53.80;102609.56;4352085;27;20022;-70
2024/04/11 18:17:42;;;;;;;;;;;;;;;15.04;53.84;102615.00;4388101;26;19941;-69
2024/04/11 18:19:56;;;;;;;;;;;;;;;15.03;53.80;102616.03;4387165;26;19938;-68
2024/04/11 18:22:00;;;;;;;;;;;;;;;15.02;53.86;102608.88;4384626;26;19974;-71
2024/04/11 18:24:12;;;;;;;;;;;;;;;15.02;54.08;102605.31;4332084;27;19939;-69
2024/04/11 18:26:15;;;;;;;;;;;;;;;15.02;54.18;102606.16;4388160;26;19930;-70
2024/04/11 18:28:29;;;;;;;;;;;;;;;15.01;54.28;102611.75;4358390;27;19931;-70
2024/04/11 18:30:32;;;;;;;;;;;;;;;14.99;54.44;102616.53;4361008;27;19997;-68
2024/04/11 18:32:40;;;;;;;;;;;;;;;14.98;54.43;102610.19;4391511;26;19955;-69
2024/04/11 18:34:57;;;;;;;;;;;;;;;14.98;54.26;102612.06;4390417;26;20464;-70
2024/04/11 18:37:12;;;;;;;;;;;;;;;14.94;54.39;102600.66;4389116;26;19967;-69
2024/04/11 18:39:23;;;;;;;;;;;;;;;14.93;54.39;102604.41;4392364;26;20477;-68
2024/04/11 18:44:50;;;;;;;;;;;;;;;14.89;54.48;102595.72;4393059;26;19931;-69
2024/04/11 18:47:39;;;;;;;;;;;;;;;14.87;54.85;102596.88;4363490;27;19938;-69
2024/04/11 18:49:49;;;;;;;;;;;;;;;14.81;54.98;102592.94;4390441;26;19959;-69
2024/04/11 18:52:12;;;;;;;;;;;;;;;14.83;55.41;102601.78;4362556;27;19931;-70
2024/04/11 18:54:40;;;;;;;;;;;;;;;14.82;55.40;102615.56;4346358;27;19937;-69
2024/04/11 18:56:48;;;;;;;;;;;;;;;14.81;55.19;102625.59;4349184;27;19931;-68
2024/04/11 18:58:54;;;;;;;;;;;;;;;14.79;55.33;102627.59;4391364;26;19931;-70
2024/04/11 19:01:01;;;;;;;;;;;;;;;14.78;55.22;102624.03;4392963;26;20364;-68
2024/04/11 19:03:16;;;;;;;;;;;;;;;14.77;55.70;102613.31;4392458;26;20011;-67
2024/04/11 19:05:20;;;;;;;;;;;;;;;14.74;56.23;102609.03;4392337;27;20283;-67
2024/04/11 19:07:34;;;;;;;;;;;;;;;14.72;57.06;102615.66;4391991;26;20268;-68
2024/04/11 19:09:58;;;;;;;;;;;;;;;14.70;56.94;102621.25;4393722;26;20372;-68
2024/04/11 19:12:05;;;;;;;;;;;;;;;14.69;56.71;102622.25;4391768;26;20380;-68
2024/04/11 19:14:14;;;;;;;;;;;;;;;14.67;56.83;102626.13;4391926;26;19938;-68
2024/04/11 19:16:35;;;;;;;;;;;;;;;14.66;56.75;102619.84;4391284;26;19931;-69
2024/04/11 19:18:41;;;;;;;;;;;;;;;14.64;57.23;102624.59;4349407;27;19932;-68
2024/04/11 19:20:54;;;;;;;;;;;;;;;14.62;57.45;102626.59;4373183;27;19931;-68
2024/04/11 19:23:04;;;;;;;;;;;;;;;14.59;57.61;102621.44;4363835;27;20392;-69
2024/04/11 19:25:13;;;;;;;;;;;;;;;14.58;57.40;102625.19;4335051;27;20064;-70
2024/04/11 19:27:21;;;;;;;;;;;;;;;14.55;57.92;102631.78;4392208;26;20483;-68
2024/04/11 19:29:22;;;;;;;;;;;;;;;14.53;58.41;102625.69;4389325;26;19938;-68
2024/04/11 19:31:42;;;;;;;;;;;;;;;14.48;59.15;102630.75;4390605;26;19930;-70
2024/04/11 19:33:58;;;;;;;;;;;;;;;14.44;59.09;102642.91;4362922;27;20504;-69
2024/04/11 19:40:57;;;;;;;;;;;;;;;14.36;59.27;102660.00;4326706;27;20873;-68
2024/04/11 19:43:09;;;;;;;;;;;;;;;14.34;59.69;102658.44;4393208;27;19938;-70
2024/04/11 19:45:29;;;;;;;;;;;;;;;14.31;60.39;102654.19;4364673;27;19935;-70